Time;durP1;ratioP1;P1;durP2;ratioP2;P2;SDS_P1;SDS_P2;PMS_P1;PMS_P2;Temp;Humidity;BMP_temperature;BMP_pressure;BME280_temperature;BME280_humidity;BME280_pressure;Samples;Min_cycle;Max_cycle;Signal;HPM_P1;HPM_P2
2021/08/17 00:00:58;;;;;;;63.70;23.10;;;14.80;99.90;;;;;;5094336;28;20451;-69
2021/08/17 00:03:27;;;;;;;182.13;62.73;;;14.80;99.90;;;;;;5094712;28;20210;-69
2021/08/17 00:06:01;;;;;;;152.83;62.33;;;14.80;99.90;;;;;;5094608;28;20408;-69
2021/08/17 00:08:30;;;;;;;166.80;64.50;;;14.80;99.90;;;;;;5094507;28;20398;-69
2021/08/17 00:11:00;;;;;;;219.83;63.43;;;14.80;99.90;;;;;;5094406;28;20427;-69
2021/08/17 00:13:28;;;;;;;209.73;66.13;;;14.80;99.90;;;;;;5094064;28;20462;-69
2021/08/17 00:15:56;;;;;;;198.07;65.87;;;14.80;99.90;;;;;;5094519;28;20468;-69
2021/08/17 00:18:24;;;;;;;213.63;69.70;;;14.80;99.90;;;;;;5095403;28;20482;-69
2021/08/17 00:20:52;;;;;;;144.97;63.93;;;14.80;99.90;;;;;;5094879;28;20841;-69
2021/08/17 00:23:20;;;;;;;203.07;63.67;;;14.80;99.90;;;;;;5092417;28;20554;-69
2021/08/17 00:25:49;;;;;;;215.93;71.10;;;14.80;99.90;;;;;;5094167;28;20551;-69
2021/08/17 00:28:18;;;;;;;220.83;65.03;;;14.70;99.90;;;;;;5093810;28;20433;-69
2021/08/17 00:30:46;;;;;;;233.90;73.13;;;14.70;99.90;;;;;;5078483;28;20450;-69
2021/08/17 00:33:14;;;;;;;15.57;6.22;;;14.70;99.90;;;;;;5084531;28;20440;-69
2021/08/17 00:35:42;;;;;;;174.17;59.23;;;14.80;99.90;;;;;;5093941;28;20343;-69
2021/08/17 00:38:10;;;;;;;99.57;33.17;;;14.80;99.90;;;;;;5093476;28;20423;-69
2021/08/17 00:40:38;;;;;;;213.80;62.37;;;14.80;99.90;;;;;;5093818;28;20182;-69
2021/08/17 00:43:08;;;;;;;137.63;62.43;;;14.80;99.90;;;;;;5093401;28;20439;-69
2021/08/17 00:45:38;;;;;;;246.17;69.43;;;14.80;99.90;;;;;;5093775;28;20444;-69
2021/08/17 00:48:06;;;;;;;232.70;75.63;;;14.80;99.90;;;;;;5093313;28;20441;-69
2021/08/17 00:50:36;;;;;;;232.63;63.93;;;14.80;99.90;;;;;;5092879;28;20947;-69
2021/08/17 00:53:05;;;;;;;234.13;67.97;;;14.80;99.90;;;;;;5093258;28;20454;-69
2021/08/17 00:55:33;;;;;;;201.33;73.07;;;14.80;99.90;;;;;;5093250;28;20468;-69
2021/08/17 00:58:02;;;;;;;234.77;71.67;;;14.80;99.90;;;;;;5092025;28;20447;-69
2021/08/17 01:00:30;;;;;;;201.37;66.47;;;14.80;99.90;;;;;;5093334;28;20443;-69
2021/08/17 01:02:59;;;;;;;184.60;68.23;;;14.80;99.90;;;;;;5093446;28;20491;-69
2021/08/17 01:05:30;;;;;;;50.95;18.65;;;14.80;99.90;;;;;;5093136;28;20419;-69
2021/08/17 01:07:59;;;;;;;182.77;60.50;;;14.90;99.90;;;;;;5092901;28;20647;-69
2021/08/17 01:10:28;;;;;;;120.72;35.53;;;14.80;99.90;;;;;;5092996;28;20819;-69
2021/08/17 01:12:56;;;;;;;281.00;71.37;;;14.80;99.90;;;;;;5091809;28;20712;-69
2021/08/17 01:15:24;;;;;;;184.07;70.37;;;14.80;99.90;;;;;;5093376;28;20443;-69
2021/08/17 01:17:52;;;;;;;165.67;73.13;;;14.80;99.90;;;;;;5093173;28;20433;-69
2021/08/17 01:20:23;;;;;;;191.27;66.53;;;14.80;99.90;;;;;;5092725;28;20932;-69
2021/08/17 01:22:51;;;;;;;210.03;68.47;;;14.80;99.90;;;;;;5093068;28;20464;-69
2021/08/17 01:25:19;;;;;;;183.03;63.17;;;14.70;99.90;;;;;;5093176;28;20460;-69
2021/08/17 01:27:48;;;;;;;225.10;63.90;;;14.70;99.90;;;;;;5093490;28;20415;-69
2021/08/17 01:30:17;;;;;;;181.17;61.23;;;14.70;99.90;;;;;;5093312;28;20768;-69
2021/08/17 01:32:46;;;;;;;243.87;74.87;;;14.70;99.90;;;;;;5093322;28;20463;-69
2021/08/17 01:35:15;;;;;;;203.83;70.03;;;14.70;99.90;;;;;;5091646;28;20870;-69
2021/08/17 01:37:43;;;;;;;91.28;28.15;;;14.70;99.90;;;;;;5092971;28;20432;-69
2021/08/17 01:40:13;;;;;;;178.20;69.23;;;14.70;99.90;;;;;;5091619;28;20191;-69
2021/08/17 01:42:43;;;;;;;178.50;56.57;;;14.70;99.90;;;;;;5093187;28;20437;-69
2021/08/17 01:45:14;;;;;;;197.27;70.73;;;14.70;99.90;;;;;;5092957;28;20417;-69
2021/08/17 01:47:42;;;;;;;243.33;69.77;;;14.70;99.90;;;;;;5092922;28;20421;-69
2021/08/17 01:50:13;;;;;;;211.03;70.43;;;14.70;99.90;;;;;;5092611;28;20458;-69
2021/08/17 01:52:41;;;;;;;223.00;73.63;;;14.60;99.90;;;;;;5092864;28;20559;-69
2021/08/17 01:55:11;;;;;;;232.07;75.97;;;14.60;99.90;;;;;;5093120;28;20404;-69
2021/08/17 01:57:39;;;;;;;242.07;73.47;;;14.60;99.90;;;;;;5093235;28;20806;-69
2021/08/17 02:00:09;;;;;;;197.77;73.93;;;14.60;99.90;;;;;;5093086;28;20927;-69
2021/08/17 02:02:39;;;;;;;164.87;71.87;;;14.60;99.90;;;;;;5093454;28;20449;-69
2021/08/17 02:05:09;;;;;;;235.07;71.93;;;14.60;99.90;;;;;;5093631;28;20396;-69
2021/08/17 02:07:38;;;;;;;261.23;77.20;;;14.60;99.90;;;;;;5092905;28;20497;-69
2021/08/17 02:10:08;;;;;;;124.70;41.00;;;14.60;99.90;;;;;;5092263;28;21010;-69
2021/08/17 02:12:37;;;;;;;234.00;74.37;;;14.60;99.90;;;;;;5092718;28;20224;-69
2021/08/17 02:15:06;;;;;;;240.47;72.83;;;14.60;99.90;;;;;;5092760;28;20935;-69
2021/08/17 02:17:34;;;;;;;288.37;83.30;;;14.60;99.90;;;;;;5092716;28;21065;-69
2021/08/17 02:20:04;;;;;;;230.90;75.87;;;14.60;99.90;;;;;;5093245;28;20440;-69
2021/08/17 02:22:32;;;;;;;221.37;76.60;;;14.50;99.90;;;;;;5096339;28;20476;-69
2021/08/17 02:25:00;;;;;;;222.27;80.63;;;14.50;99.90;;;;;;5094994;28;20993;-69
2021/08/17 02:27:33;;;;;;;245.17;68.83;;;14.50;99.90;;;;;;5096538;28;20531;-69
2021/08/17 02:30:01;;;;;;;251.43;91.33;;;14.50;99.90;;;;;;5096210;28;20515;-69
2021/08/17 02:32:29;;;;;;;222.10;76.57;;;14.50;99.90;;;;;;5094877;28;20504;-69
2021/08/17 02:34:58;;;;;;;292.03;81.83;;;14.50;99.90;;;;;;5096541;28;20415;-69
2021/08/17 02:37:27;;;;;;;279.27;80.37;;;14.40;99.90;;;;;;5096057;28;20599;-69
2021/08/17 02:39:55;;;;;;;288.23;82.23;;;14.40;99.90;;;;;;5096303;28;20432;-69
2021/08/17 02:42:23;;;;;;;278.60;75.47;;;14.40;99.90;;;;;;5093526;28;20563;-69
2021/08/17 02:44:51;;;;;;;13.65;5.88;;;14.30;99.90;;;;;;5095339;28;20448;-69
2021/08/17 02:47:20;;;;;;;246.53;73.67;;;14.40;99.90;;;;;;5095882;28;20195;-69
2021/08/17 02:49:48;;;;;;;12.63;6.22;;;14.40;99.90;;;;;;5094578;28;20444;-69
2021/08/17 02:52:16;;;;;;;199.73;68.07;;;14.50;99.90;;;;;;5097816;28;20276;-69
2021/08/17 02:54:45;;;;;;;280.43;78.27;;;14.50;99.90;;;;;;5096334;28;20411;-69
2021/08/17 02:57:13;;;;;;;233.90;74.90;;;14.40;99.90;;;;;;5095792;28;20538;-69
2021/08/17 02:59:41;;;;;;;288.37;80.17;;;14.40;99.90;;;;;;5094495;28;20437;-69
2021/08/17 03:02:10;;;;;;;270.07;84.00;;;14.30;99.90;;;;;;5095378;28;20411;-69
2021/08/17 03:04:38;;;;;;;246.00;79.67;;;14.30;99.90;;;;;;5095590;28;20411;-69
2021/08/17 03:07:06;;;;;;;261.83;71.03;;;14.30;99.90;;;;;;5095420;28;20511;-70
2021/08/17 03:09:35;;;;;;;285.30;80.90;;;14.30;99.90;;;;;;5095683;28;20407;-70
2021/08/17 03:12:04;;;;;;;248.33;84.30;;;14.30;99.90;;;;;;5095272;28;20778;-69
2021/08/17 03:14:32;;;;;;;284.13;85.93;;;14.20;99.90;;;;;;5095304;28;20429;-69
2021/08/17 03:17:01;;;;;;;12.82;5.43;;;14.20;99.90;;;;;;5094573;28;20925;-69
2021/08/17 03:19:29;;;;;;;187.43;67.03;;;14.30;99.90;;;;;;5095466;28;20195;-69
2021/08/17 03:21:57;;;;;;;235.87;68.50;;;14.30;99.90;;;;;;5095182;28;20426;-69
2021/08/17 03:24:25;;;;;;;308.50;87.07;;;14.30;99.90;;;;;;5093836;28;20419;-69
2021/08/17 03:26:53;;;;;;;285.43;80.27;;;14.30;99.90;;;;;;5093538;28;20977;-70
2021/08/17 03:29:22;;;;;;;281.50;82.63;;;14.20;99.90;;;;;;5093826;28;20452;-70
2021/08/17 03:31:50;;;;;;;279.20;77.00;;;14.20;99.90;;;;;;5094675;28;20403;-70
2021/08/17 03:34:19;;;;;;;232.13;76.70;;;14.20;99.90;;;;;;5094871;28;20452;-70
2021/08/17 03:36:47;;;;;;;253.67;76.67;;;14.20;99.90;;;;;;5094999;28;20474;-70
2021/08/17 03:39:15;;;;;;;238.00;77.03;;;14.10;99.90;;;;;;5094957;28;20515;-69
2021/08/17 03:41:43;;;;;;;253.17;75.87;;;14.10;99.90;;;;;;5094713;28;20452;-70
2021/08/17 03:44:11;;;;;;;278.60;82.23;;;14.10;99.90;;;;;;5092857;28;20992;-69
2021/08/17 03:46:41;;;;;;;286.87;78.97;;;14.10;99.90;;;;;;5095048;28;20437;-69
2021/08/17 03:49:09;;;;;;;176.52;56.00;;;14.10;99.90;;;;;;5094439;28;20468;-69
2021/08/17 03:51:37;;;;;;;282.00;85.40;;;14.10;99.90;;;;;;5094804;28;20194;-70
2021/08/17 03:54:05;;;;;;;232.30;76.73;;;14.10;99.90;;;;;;5094641;28;20875;-69
2021/08/17 03:56:33;;;;;;;281.70;88.23;;;14.10;99.90;;;;;;5093203;28;20547;-69
2021/08/17 03:59:01;;;;;;;240.80;85.93;;;14.10;99.90;;;;;;5094376;28;20426;-69
2021/08/17 04:01:29;;;;;;;286.03;83.73;;;14.00;99.90;;;;;;5094591;28;20437;-69
2021/08/17 04:03:59;;;;;;;288.10;88.23;;;14.00;99.90;;;;;;5094350;28;20423;-69
2021/08/17 04:06:27;;;;;;;245.17;79.80;;;14.00;99.90;;;;;;5094991;28;20432;-68
2021/08/17 04:08:55;;;;;;;264.10;84.13;;;14.00;99.90;;;;;;5094469;28;20929;-69
2021/08/17 04:11:23;;;;;;;237.73;81.03;;;14.00;99.90;;;;;;5094677;28;20426;-69
2021/08/17 04:13:51;;;;;;;281.27;80.97;;;14.00;99.90;;;;;;5091478;28;20912;-69
2021/08/17 04:16:19;;;;;;;280.97;77.67;;;14.00;99.90;;;;;;5095150;28;20444;-69
2021/08/17 04:18:47;;;;;;;282.93;72.23;;;14.00;99.90;;;;;;5094498;28;20433;-69
2021/08/17 04:21:17;;;;;;;249.70;73.50;;;14.00;99.90;;;;;;5094061;28;20437;-69
2021/08/17 04:23:45;;;;;;;10.63;4.70;;;14.00;99.90;;;;;;5092475;28;20791;-70
2021/08/17 04:26:13;;;;;;;239.83;73.57;;;14.00;99.90;;;;;;5094194;28;20444;-70
2021/08/17 04:28:41;;;;;;;216.43;84.50;;;14.10;99.90;;;;;;5094188;28;20407;-69
2021/08/17 04:31:09;;;;;;;249.87;82.33;;;14.00;99.90;;;;;;5094005;28;20449;-69
2021/08/17 04:33:37;;;;;;;287.77;84.33;;;14.00;99.90;;;;;;5093796;28;20453;-69
2021/08/17 04:36:06;;;;;;;286.47;82.87;;;14.00;99.90;;;;;;5094527;28;20443;-69
2021/08/17 04:38:35;;;;;;;279.27;78.33;;;14.00;99.90;;;;;;5094102;28;20475;-69
2021/08/17 04:41:03;;;;;;;240.80;80.67;;;14.00;99.90;;;;;;5094042;28;20783;-69
2021/08/17 04:43:31;;;;;;;284.13;81.57;;;14.00;99.90;;;;;;5093513;28;20812;-69
2021/08/17 04:45:59;;;;;;;266.20;80.07;;;14.00;99.90;;;;;;5094339;28;20463;-69
2021/08/17 04:48:28;;;;;;;291.67;90.40;;;14.00;99.90;;;;;;5093791;28;20504;-69
2021/08/17 04:50:58;;;;;;;284.00;89.37;;;14.00;99.90;;;;;;5094030;28;20415;-69
2021/08/17 04:53:26;;;;;;;284.80;89.87;;;14.00;99.90;;;;;;5094991;28;20468;-69
2021/08/17 04:55:56;;;;;;;120.28;40.55;;;14.00;99.90;;;;;;5095956;28;20414;-69
2021/08/17 04:58:24;;;;;;;251.67;81.20;;;14.00;99.90;;;;;;5095682;28;20214;-69
2021/08/17 05:00:52;;;;;;;229.10;75.47;;;14.00;99.90;;;;;;5096561;28;20788;-69
2021/08/17 05:03:22;;;;;;;283.07;79.57;;;14.00;99.90;;;;;;5095982;28;20491;-69
2021/08/17 05:05:51;;;;;;;287.23;86.40;;;14.00;99.90;;;;;;5093135;28;20448;-69
2021/08/17 05:08:19;;;;;;;266.57;79.83;;;14.00;99.90;;;;;;5095846;28;20521;-69
2021/08/17 05:10:47;;;;;;;279.93;78.17;;;13.90;99.90;;;;;;5095640;28;20440;-69
2021/08/17 05:13:16;;;;;;;285.57;86.77;;;13.90;99.90;;;;;;5095387;28;20483;-70
2021/08/17 05:15:44;;;;;;;292.53;91.10;;;13.90;99.90;;;;;;5092070;28;20432;-70
2021/08/17 05:18:13;;;;;;;281.03;85.90;;;13.90;99.90;;;;;;5091790;28;20472;-69
2021/08/17 05:20:41;;;;;;;285.23;90.53;;;13.90;99.90;;;;;;5094414;28;20407;-69
2021/08/17 05:23:09;;;;;;;280.60;82.27;;;13.90;99.90;;;;;;5094279;28;20464;-69
2021/08/17 05:25:37;;;;;;;287.17;89.20;;;13.90;99.90;;;;;;5094288;28;20443;-69
2021/08/17 05:28:06;;;;;;;276.53;84.40;;;13.90;99.90;;;;;;5094537;28;20957;-70
2021/08/17 05:30:35;;;;;;;10.48;4.47;;;13.90;99.90;;;;;;5092752;28;20432;-70
2021/08/17 05:33:03;;;;;;;275.13;81.73;;;14.00;99.90;;;;;;5093666;28;20572;-70
2021/08/17 05:35:35;;;;;;;10.67;4.40;;;14.00;99.90;;;;;;5093635;28;20437;-69
2021/08/17 05:38:04;;;;;;;288.77;96.77;;;14.00;99.90;;;;;;5094026;28;20470;-69
2021/08/17 05:40:33;;;;;;;274.63;88.97;;;14.00;99.90;;;;;;5093205;28;20415;-69
2021/08/17 05:43:02;;;;;;;284.27;86.97;;;14.00;99.90;;;;;;5093545;28;20545;-70
2021/08/17 05:45:30;;;;;;;279.50;83.93;;;14.00;99.90;;;;;;5093120;28;20414;-70
2021/08/17 05:48:00;;;;;;;285.00;81.70;;;14.00;99.90;;;;;;5093582;28;20793;-70
2021/08/17 05:50:28;;;;;;;259.73;82.33;;;14.00;99.90;;;;;;5093043;28;20433;-70
2021/08/17 05:52:56;;;;;;;283.53;84.73;;;14.00;99.90;;;;;;5093101;28;20457;-70
2021/08/17 05:55:24;;;;;;;290.47;91.33;;;14.00;99.90;;;;;;5097032;28;20410;-70
2021/08/17 05:57:57;;;;;;;283.07;84.10;;;14.10;99.90;;;;;;5097180;28;20597;-70
2021/08/17 06:00:26;;;;;;;284.83;79.67;;;14.20;99.90;;;;;;5097159;28;20428;-70
2021/08/17 06:02:54;;;;;;;286.43;88.53;;;14.30;99.90;;;;;;5097018;28;20556;-70
2021/08/17 06:05:25;;;;;;;287.83;93.83;;;14.40;99.90;;;;;;5097184;28;20415;-69
2021/08/17 06:07:53;;;;;;;287.73;90.57;;;14.40;99.90;;;;;;5097256;28;20796;-70
2021/08/17 06:10:22;;;;;;;7.07;3.47;;;14.50;99.90;;;;;;5094617;28;20518;-70
2021/08/17 06:12:50;;;;;;;278.87;82.90;;;14.50;99.90;;;;;;5097535;28;20206;-69
2021/08/17 06:15:18;;;;;;;288.00;88.27;;;14.70;99.90;;;;;;5097226;28;20951;-69
2021/08/17 06:17:47;;;;;;;298.23;94.03;;;14.70;99.90;;;;;;5096592;28;20443;-70
2021/08/17 06:20:17;;;;;;;298.93;94.67;;;14.70;99.90;;;;;;5096851;28;20433;-70
2021/08/17 06:22:46;;;;;;;292.03;95.33;;;14.70;99.90;;;;;;5095200;28;20451;-69
2021/08/17 06:25:14;;;;;;;296.57;95.67;;;14.70;99.90;;;;;;5095279;28;20421;-70
2021/08/17 06:27:42;;;;;;;310.50;106.37;;;14.80;99.90;;;;;;5097101;28;20419;-69
2021/08/17 06:30:11;;;;;;;293.37;105.47;;;14.90;99.90;;;;;;5096754;28;20436;-69
2021/08/17 06:32:53;;;;;;;303.67;99.90;;;15.10;99.90;;;;;;5096535;28;20435;-69
2021/08/17 06:35:22;;;;;;;300.93;103.67;;;15.20;99.90;;;;;;5095365;28;20441;-70
2021/08/17 06:37:52;;;;;;;8.93;3.78;;;15.20;99.90;;;;;;5095792;28;20440;-70
2021/08/17 06:40:21;;;;;;;85.63;42.60;;;15.20;99.90;;;;;;5096171;28;20634;-69
2021/08/17 06:42:49;;;;;;;9.45;3.78;;;15.20;99.90;;;;;;5095650;28;20446;-70
2021/08/17 06:45:17;;;;;;;284.00;96.47;;;15.30;99.90;;;;;;5095895;28;20193;-69
2021/08/17 06:47:47;;;;;;;298.17;96.93;;;15.20;99.90;;;;;;5096168;28;20415;-71
2021/08/17 06:50:35;;;;;;;296.93;104.90;;;15.30;99.90;;;;;;5096268;28;20403;-70
2021/08/17 06:53:04;;;;;;;297.60;102.43;;;15.30;99.90;;;;;;5095867;28;20851;-70
2021/08/17 06:55:32;;;;;;;297.37;106.53;;;15.30;99.90;;;;;;5094591;28;20423;-70
2021/08/17 06:58:01;;;;;;;291.83;103.13;;;15.30;99.90;;;;;;5094229;28;20950;-70
2021/08/17 07:00:29;;;;;;;313.67;107.23;;;15.30;99.90;;;;;;5095855;28;20482;-70
2021/08/17 07:02:57;;;;;;;303.27;107.97;;;15.30;99.90;;;;;;5096037;28;20448;-70
2021/08/17 07:05:34;;;;;;;303.20;101.93;;;15.30;99.90;;;;;;5094737;28;20953;-70
2021/08/17 07:08:05;;;;;;;306.13;103.93;;;15.30;99.90;;;;;;5095546;28;20494;-69
2021/08/17 07:10:33;;;;;;;92.88;32.45;;;15.30;99.90;;;;;;5095113;28;20433;-70
2021/08/17 07:13:22;;;;;;;296.20;109.60;;;15.40;99.90;;;;;;5095550;28;20288;-70
2021/08/17 07:15:50;;;;;;;119.77;41.13;;;15.40;99.90;;;;;;5095202;28;20486;-69
2021/08/17 07:18:18;;;;;;;300.90;101.70;;;15.50;99.90;;;;;;5095273;28;20509;-70
2021/08/17 07:20:46;;;;;;;303.13;108.60;;;15.60;99.90;;;;;;5095685;28;20399;-70
2021/08/17 07:23:16;;;;;;;298.53;113.70;;;15.60;99.90;;;;;;5096452;28;20435;-70
2021/08/17 07:25:44;;;;;;;310.90;108.73;;;15.70;99.90;;;;;;5099129;28;20411;-71
2021/08/17 07:28:13;;;;;;;318.93;113.10;;;15.80;99.90;;;;;;5096136;28;20448;-70
2021/08/17 07:30:42;;;;;;;303.30;109.90;;;15.90;99.90;;;;;;5094291;28;20490;-71
2021/08/17 07:33:10;;;;;;;345.10;120.20;;;16.00;99.90;;;;;;5095719;28;20460;-71
2021/08/17 07:35:39;;;;;;;313.33;118.73;;;16.10;99.90;;;;;;5096077;28;20421;-71
2021/08/17 07:38:07;;;;;;;335.30;122.03;;;16.20;99.90;;;;;;5095547;28;20411;-70
2021/08/17 07:40:37;;;;;;;365.47;124.93;;;16.30;99.90;;;;;;5095728;28;20408;-71
2021/08/17 07:43:07;;;;;;;56.77;48.77;;;16.30;99.90;;;;;;5095551;28;20416;-71
2021/08/17 07:45:35;;;;;;;338.70;126.70;;;16.40;99.90;;;;;;5095632;28;20421;-70
2021/08/17 07:48:24;;;;;;;335.30;125.27;;;16.50;99.90;;;;;;5095052;28;20448;-70
2021/08/17 07:50:53;;;;;;;304.60;120.73;;;16.50;99.90;;;;;;5094752;28;20425;-70
2021/08/17 07:53:21;;;;;;;334.80;127.17;;;16.60;99.90;;;;;;5094756;28;20476;-70
2021/08/17 07:55:50;;;;;;;284.27;35.30;;;16.70;99.90;;;;;;5094669;28;20436;-70
2021/08/17 07:58:18;;;;;;;96.50;65.30;;;16.80;99.90;;;;;;5093361;28;20550;-70
2021/08/17 08:00:47;;;;;;;427.53;127.53;;;16.90;99.90;;;;;;5095558;28;20506;-70
2021/08/17 08:03:15;;;;;;;437.93;146.30;;;17.00;99.90;;;;;;5095115;28;20427;-70
2021/08/17 08:05:44;;;;;;;72.00;38.33;;;17.20;99.90;;;;;;5095675;28;20440;-70
2021/08/17 08:08:12;;;;;;;301.47;102.40;;;17.30;99.90;;;;;;5095608;28;20444;-71
2021/08/17 08:10:40;;;;;;;435.87;145.73;;;17.40;99.90;;;;;;5095501;28;20424;-70
2021/08/17 08:13:09;;;;;;;330.27;117.77;;;17.50;99.90;;;;;;5096074;28;20462;-71
2021/08/17 08:15:37;;;;;;;164.80;58.00;;;17.60;99.90;;;;;;5094970;28;20443;-71
2021/08/17 08:18:07;;;;;;;295.63;77.80;;;17.60;99.90;;;;;;5095016;28;20669;-71
2021/08/17 08:20:35;;;;;;;405.57;142.97;;;17.60;99.90;;;;;;5095320;28;20470;-71
2021/08/17 08:23:05;;;;;;;9.52;4.90;;;17.70;99.90;;;;;;5093917;28;20438;-71
2021/08/17 08:25:34;;;;;;;82.70;21.70;;;17.80;99.90;;;;;;5095092;28;20201;-70
2021/08/17 08:28:03;;;;;;;363.50;124.57;;;17.80;99.90;;;;;;5093497;28;20448;-71
2021/08/17 08:30:32;;;;;;;420.63;123.63;;;17.80;99.90;;;;;;5095253;28;20432;-71
2021/08/17 08:33:00;;;;;;;461.93;142.83;;;17.80;99.90;;;;;;5094750;28;20457;-71
2021/08/17 08:35:30;;;;;;;305.20;89.03;;;17.70;99.90;;;;;;5095154;28;20915;-71
2021/08/17 08:38:00;;;;;;;301.00;98.33;;;17.80;99.90;;;;;;5095518;28;20798;-71
2021/08/17 08:40:28;;;;;;;187.20;72.33;;;17.80;99.90;;;;;;5093676;28;20468;-70
2021/08/17 08:42:56;;;;;;;434.13;139.23;;;17.80;99.90;;;;;;5094971;28;20467;-71
2021/08/17 08:45:26;;;;;;;460.40;131.10;;;17.80;99.90;;;;;;5095568;28;20919;-71
2021/08/17 08:47:56;;;;;;;207.10;66.13;;;17.80;99.90;;;;;;5094852;28;20446;-71
2021/08/17 08:50:24;;;;;;;364.10;127.00;;;17.80;99.90;;;;;;5095076;28;20244;-71
2021/08/17 08:52:52;;;;;;;197.50;70.47;;;17.80;99.90;;;;;;5094906;28;20468;-71
2021/08/17 08:55:22;;;;;;;341.13;93.70;;;17.80;99.90;;;;;;5095256;28;20436;-71
2021/08/17 08:57:51;;;;;;;405.53;133.90;;;17.80;99.90;;;;;;5095044;28;20493;-71
2021/08/17 09:00:20;;;;;;;458.30;139.97;;;17.80;99.90;;;;;;5095541;28;20526;-71
2021/08/17 09:02:51;;;;;;;414.23;147.40;;;17.80;99.90;;;;;;5095699;28;20453;-71
2021/08/17 09:05:22;;;;;;;355.23;130.97;;;17.80;99.90;;;;;;5095307;28;20420;-70
2021/08/17 09:07:52;;;;;;;451.37;132.57;;;17.70;99.90;;;;;;5095065;28;20470;-71
2021/08/17 09:10:22;;;;;;;436.70;138.87;;;17.70;99.90;;;;;;5095264;28;20440;-71
2021/08/17 09:12:53;;;;;;;416.40;140.80;;;17.70;99.90;;;;;;5094473;28;20543;-71
2021/08/17 09:15:24;;;;;;;299.80;80.47;;;17.60;99.90;;;;;;5095239;28;20468;-70
2021/08/17 09:18:01;;;;;;;402.33;146.70;;;17.60;99.90;;;;;;5095027;28;20937;-71
2021/08/17 09:20:34;;;;;;;13.13;7.75;;;17.50;99.90;;;;;;5093454;28;20447;-71
2021/08/17 09:23:24;;;;;;;370.30;141.60;;;17.60;99.90;;;;;;5093948;28;20211;-71
2021/08/17 09:25:53;;;;;;;9.48;5.95;;;17.60;99.90;;;;;;5092497;28;20432;-71
2021/08/17 09:28:26;;;;;;;86.80;57.27;;;17.70;99.90;;;;;;5094083;28;20194;-71
2021/08/17 09:30:55;;;;;;;67.97;61.37;;;17.70;99.90;;;;;;5097665;28;20421;-71
2021/08/17 09:33:23;;;;;;;184.13;72.33;;;17.70;99.90;;;;;;5097221;28;20471;-70
2021/08/17 09:35:57;;;;;;;139.43;67.07;;;17.70;99.90;;;;;;5097064;28;20448;-71
2021/08/17 09:38:31;;;;;;;384.43;144.90;;;17.70;99.90;;;;;;5097391;28;20424;-71
2021/08/17 09:41:03;;;;;;;159.37;75.90;;;17.60;99.90;;;;;;5096924;28;20457;-71
2021/08/17 09:43:32;;;;;;;42.80;39.37;;;17.60;99.90;;;;;;5097054;28;20569;-71
2021/08/17 09:46:10;;;;;;;377.53;144.77;;;17.60;99.90;;;;;;5097067;28;20868;-71
2021/08/17 09:48:38;;;;;;;142.93;75.03;;;17.60;99.90;;;;;;5096896;28;20423;-71
2021/08/17 09:51:07;;;;;;;9.60;7.28;;;17.60;99.90;;;;;;5094949;28;20923;-71
2021/08/17 09:53:35;;;;;;;326.40;127.43;;;17.70;99.90;;;;;;5096682;28;20220;-71
2021/08/17 09:56:04;;;;;;;177.73;61.65;;;17.70;99.90;;;;;;5096936;28;20443;-71
2021/08/17 09:58:35;;;;;;;169.07;66.73;;;17.70;99.90;;;;;;5095398;28;20223;-71
2021/08/17 10:01:05;;;;;;;352.70;136.20;;;17.70;99.90;;;;;;5097207;28;20811;-71
2021/08/17 10:03:35;;;;;;;190.53;70.00;;;17.80;99.90;;;;;;5095336;28;20468;-70
2021/08/17 10:06:04;;;;;;;195.53;70.73;;;17.80;99.90;;;;;;5097069;28;20444;-71
2021/08/17 10:08:37;;;;;;;191.43;69.93;;;17.90;99.90;;;;;;5095395;28;20466;-71
2021/08/17 10:11:07;;;;;;;430.83;147.73;;;17.90;99.90;;;;;;5096623;28;20443;-71
2021/08/17 10:13:38;;;;;;;383.27;139.07;;;17.90;99.90;;;;;;5096615;28;20962;-70
2021/08/17 10:16:07;;;;;;;190.77;68.23;;;17.80;99.90;;;;;;5096987;28;20507;-71
2021/08/17 10:18:41;;;;;;;394.87;134.80;;;17.70;99.90;;;;;;5096632;28;20428;-71
2021/08/17 10:21:10;;;;;;;116.65;40.92;;;17.70;99.90;;;;;;5096519;28;20451;-71
2021/08/17 10:23:44;;;;;;;391.33;136.73;;;17.60;99.90;;;;;;5096245;28;20228;-71
2021/08/17 10:26:28;;;;;;;437.30;129.70;;;17.50;99.90;;;;;;5096685;28;20426;-71
2021/08/17 10:28:56;;;;;;;405.77;137.87;;;17.50;99.90;;;;;;5096340;28;20413;-71
2021/08/17 10:31:31;;;;;;;359.07;143.70;;;17.50;99.90;;;;;;5096437;28;20531;-71
2021/08/17 10:34:08;;;;;;;373.07;141.07;;;17.50;99.90;;;;;;5095956;28;20452;-71
2021/08/17 10:36:38;;;;;;;414.17;133.67;;;17.50;99.90;;;;;;5096563;28;20431;-71
2021/08/17 10:39:28;;;;;;;407.83;139.07;;;17.60;99.90;;;;;;5095937;28;20524;-71
2021/08/17 10:41:57;;;;;;;360.60;136.23;;;17.60;99.90;;;;;;5095454;28;20951;-71
2021/08/17 10:44:32;;;;;;;389.20;134.20;;;17.60;99.90;;;;;;5096161;28;20436;-71
2021/08/17 10:47:10;;;;;;;430.53;139.33;;;17.80;99.90;;;;;;5096338;28;20421;-71
2021/08/17 10:49:52;;;;;;;410.53;132.80;;;17.90;99.90;;;;;;5094500;28;20859;-71
2021/08/17 10:52:32;;;;;;;11.10;9.98;;;17.90;99.90;;;;;;5095362;28;20448;-71
2021/08/17 10:55:28;;;;;;;420.83;130.40;;;18.00;99.90;;;;;;5095968;28;20261;-71
2021/08/17 10:57:58;;;;;;;11.00;8.82;;;18.00;99.90;;;;;;5095307;28;20464;-69
2021/08/17 11:00:59;;;;;;;351.30;112.90;;;18.00;99.90;;;;;;5095594;28;20704;-71
2021/08/17 11:03:50;;;;;;;378.87;122.00;;;18.00;99.90;;;;;;5095592;28;20479;-70
2021/08/17 11:06:42;;;;;;;358.60;126.53;;;17.90;99.90;;;;;;5095905;28;20516;-71
2021/08/17 11:09:13;;;;;;;353.30;119.87;;;17.80;99.90;;;;;;5095621;28;20425;-71
2021/08/17 11:11:44;;;;;;;365.67;120.87;;;17.70;99.90;;;;;;5095551;28;20895;-71
2021/08/17 11:14:15;;;;;;;330.50;121.27;;;17.70;99.90;;;;;;5095915;28;20456;-71
2021/08/17 11:16:48;;;;;;;323.00;110.67;;;17.70;99.90;;;;;;5095886;28;20488;-71
2021/08/17 11:19:18;;;;;;;320.30;108.70;;;17.70;99.90;;;;;;5094214;28;20437;-71
2021/08/17 11:21:48;;;;;;;185.60;68.68;;;17.70;99.90;;;;;;5095464;28;20780;-71
2021/08/17 11:24:22;;;;;;;326.57;106.27;;;17.60;99.90;;;;;;5095499;28;20214;-71
2021/08/17 11:26:58;;;;;;;348.37;113.10;;;17.60;99.90;;;;;;5095392;28;20424;-71
2021/08/17 11:29:35;;;;;;;12.38;8.00;;;17.60;99.90;;;;;;5094261;28;20589;-71
2021/08/17 11:32:07;;;;;;;287.03;89.17;;;17.70;99.90;;;;;;5093841;28;20277;-71
2021/08/17 11:34:36;;;;;;;308.10;92.33;;;17.70;99.90;;;;;;5093956;28;20451;-71
2021/08/17 11:37:06;;;;;;;315.73;105.17;;;17.70;99.90;;;;;;5095258;28;20440;-71
2021/08/17 11:39:37;;;;;;;325.23;111.43;;;17.70;99.90;;;;;;5095648;28;20431;-71
2021/08/17 11:42:20;;;;;;;345.47;122.47;;;17.70;99.90;;;;;;5095353;28;20452;-71
2021/08/17 11:44:50;;;;;;;345.27;117.03;;;17.70;99.90;;;;;;5095083;28;20520;-71
2021/08/17 11:47:20;;;;;;;355.43;126.60;;;17.70;99.90;;;;;;5093778;28;20443;-71
2021/08/17 11:49:50;;;;;;;326.63;121.57;;;17.80;99.90;;;;;;5095270;28;20440;-72
2021/08/17 11:52:20;;;;;;;116.65;42.05;;;17.70;99.90;;;;;;5093656;28;20970;-71
2021/08/17 11:54:55;;;;;;;328.03;114.83;;;17.80;99.90;;;;;;5094582;28;20175;-72
2021/08/17 11:57:30;;;;;;;291.25;106.65;;;17.80;99.90;;;;;;5094855;28;20409;-71
2021/08/17 12:00:06;;;;;;;336.10;118.10;;;17.80;99.90;;;;;;5095103;28;20186;-71
2021/08/17 12:02:40;;;;;;;336.60;123.53;;;17.80;99.90;;;;;;5094274;28;20896;-71
2021/08/17 12:05:10;;;;;;;322.77;119.80;;;17.80;99.90;;;;;;5094359;28;20433;-71
2021/08/17 12:07:39;;;;;;;332.20;117.27;;;17.80;99.90;;;;;;5094780;28;20425;-71
2021/08/17 12:10:11;;;;;;;318.33;120.33;;;17.80;99.90;;;;;;5093003;28;20433;-71
2021/08/17 12:13:02;;;;;;;327.97;124.87;;;17.80;99.90;;;;;;5092932;28;20501;-71
2021/08/17 12:15:38;;;;;;;344.37;130.43;;;17.80;99.90;;;;;;5094215;28;20891;-71
2021/08/17 12:18:13;;;;;;;323.57;116.10;;;17.80;99.90;;;;;;5092847;28;20490;-71
2021/08/17 12:20:53;;;;;;;324.73;113.63;;;17.80;99.90;;;;;;5092699;28;20443;-71
2021/08/17 12:23:24;;;;;;;14.15;10.27;;;17.80;99.90;;;;;;5092974;28;20531;-71
2021/08/17 12:25:54;;;;;;;311.70;105.43;;;17.80;99.90;;;;;;5094260;28;20185;-71
2021/08/17 12:28:36;;;;;;;12.93;10.05;;;17.80;99.90;;;;;;5091977;28;20440;-71
2021/08/17 12:31:10;;;;;;;296.87;102.07;;;17.80;99.90;;;;;;5094222;28;20629;-71